createdAt,value
2022-07-26T00:01:01.261Z,55.99
2022-07-26T00:02:03.066Z,55.81
2022-07-26T00:03:04.808Z,55.28
2022-07-26T00:04:06.591Z,56.81
2022-07-26T00:05:09.208Z,57.64
2022-07-26T00:06:10.794Z,58.32
2022-07-26T00:07:12.391Z,59.11
2022-07-26T00:08:14.068Z,60.16
2022-07-26T00:09:15.942Z,62.03
2022-07-26T00:10:17.526Z,62.77
2022-07-26T00:11:20.110Z,63.58
2022-07-26T00:12:21.678Z,63.62
2022-07-26T00:13:23.404Z,63.93
2022-07-26T00:14:25.211Z,64.14
2022-07-26T00:15:27.409Z,64.28
2022-07-26T00:16:29.847Z,64.56
2022-07-26T00:17:31.570Z,64.41
2022-07-26T00:18:33.601Z,64.43
2022-07-26T00:19:35.179Z,64.05
2022-07-26T00:20:36.892Z,64.10
2022-07-26T00:21:40.810Z,63.65
2022-07-26T00:22:42.557Z,63.16
2022-07-26T00:23:44.239Z,62.98
2022-07-26T00:24:45.907Z,62.48
2022-07-26T00:25:47.536Z,62.41
2022-07-26T00:26:49.107Z,61.94
2022-07-26T00:27:50.761Z,61.88
2022-07-26T00:28:52.349Z,61.45
2022-07-26T00:29:53.920Z,61.32
2022-07-26T00:30:55.508Z,60.64
2022-07-26T00:31:57.179Z,60.34
2022-07-26T00:32:58.918Z,60.46
2022-07-26T00:34:00.572Z,60.64
2022-07-26T00:35:02.237Z,60.66
2022-07-26T00:36:04.154Z,60.48
2022-07-26T00:37:05.761Z,60.33
2022-07-26T00:38:07.648Z,60.48
2022-07-26T00:39:10.906Z,60.47
2022-07-26T00:40:13.303Z,60.36
2022-07-26T00:41:14.952Z,60.12
2022-07-26T00:42:17.071Z,59.86
2022-07-26T00:43:18.736Z,59.84
2022-07-26T00:44:20.482Z,59.35
2022-07-26T00:45:22.475Z,59.52
2022-07-26T00:46:24.398Z,59.45
2022-07-26T00:47:26.172Z,59.03
2022-07-26T00:48:27.890Z,58.88
2022-07-26T00:49:29.501Z,58.99
2022-07-26T00:50:31.204Z,59.20
2022-07-26T00:51:33.100Z,59.06
2022-07-26T00:52:34.826Z,58.89
2022-07-26T00:53:36.462Z,58.83
2022-07-26T00:54:40.033Z,59.91
2022-07-26T00:55:41.892Z,60.71
2022-07-26T00:56:44.278Z,61.08
2022-07-26T00:57:46.577Z,61.39
2022-07-26T00:58:48.407Z,62.34
2022-07-26T00:59:50.830Z,62.48
2022-07-26T01:00:52.508Z,62.42
2022-07-26T01:01:54.393Z,62.24
2022-07-26T01:02:57.092Z,62.27
2022-07-26T01:03:59.108Z,61.87
2022-07-26T01:05:01.166Z,61.60
2022-07-26T01:06:02.917Z,61.21
2022-07-26T01:07:14.631Z,60.91
2022-07-26T01:08:17.189Z,60.68
2022-07-26T01:09:19.546Z,60.52
2022-07-26T01:10:21.725Z,60.29
2022-07-26T01:11:23.360Z,60.58
2022-07-26T01:12:24.979Z,60.44
2022-07-26T01:13:29.720Z,60.40
2022-07-26T01:14:34.791Z,60.17
2022-07-26T01:15:36.461Z,60.32
2022-07-26T01:16:38.371Z,60.23
2022-07-26T01:17:41.195Z,60.29
2022-07-26T01:18:43.026Z,60.25
2022-07-26T01:19:44.686Z,60.13
2022-07-26T01:20:47.909Z,60.14
2022-07-26T01:21:52.608Z,59.77
2022-07-26T01:22:54.160Z,59.89
2022-07-26T01:23:55.843Z,59.77
2022-07-26T01:24:57.438Z,59.41
2022-07-26T01:25:59.034Z,59.50
2022-07-26T01:27:01.075Z,59.07
2022-07-26T01:28:05.235Z,59.18
2022-07-26T01:29:07.013Z,59.55
2022-07-26T01:30:11.364Z,59.70
2022-07-26T01:31:13.049Z,59.87
2022-07-26T01:32:14.878Z,59.99
2022-07-26T01:33:16.497Z,60.27
2022-07-26T01:34:18.368Z,60.24
2022-07-26T01:35:21.395Z,60.65
2022-07-26T01:36:23.084Z,61.90
2022-07-26T01:37:24.685Z,61.95
2022-07-26T01:38:27.440Z,62.40
2022-07-26T01:39:29.170Z,62.69
2022-07-26T01:40:30.779Z,62.72
2022-07-26T01:41:38.372Z,63.18
2022-07-26T01:42:41.221Z,63.47
2022-07-26T01:43:43.300Z,63.90
2022-07-26T01:44:44.899Z,64.03
2022-07-26T01:45:46.655Z,64.73
2022-07-26T01:46:48.566Z,64.63
2022-07-26T01:47:50.405Z,64.61
2022-07-26T01:48:52.743Z,64.38
2022-07-26T01:49:54.372Z,64.43
2022-07-26T01:50:55.953Z,64.80
2022-07-26T01:51:57.568Z,65.05
2022-07-26T01:52:59.219Z,65.03
2022-07-26T01:54:02.010Z,65.14
2022-07-26T01:55:03.928Z,65.27
2022-07-26T01:56:06.016Z,65.09
2022-07-26T01:57:07.642Z,65.06
2022-07-26T01:58:09.357Z,64.91
2022-07-26T01:59:10.958Z,64.76
2022-07-26T02:00:13.030Z,64.58
2022-07-26T02:01:14.698Z,64.41
2022-07-26T02:02:16.438Z,64.21
2022-07-26T02:03:18.217Z,64.23
2022-07-26T02:04:38.453Z,63.90
2022-07-26T02:05:40.093Z,63.72
2022-07-26T02:06:42.013Z,63.30
2022-07-26T02:07:45.154Z,63.31
2022-07-26T02:08:46.791Z,62.95
2022-07-26T02:09:48.446Z,63.02
2022-07-26T02:11:00.572Z,62.65
2022-07-26T02:12:05.441Z,63.07
2022-07-26T02:13:07.199Z,62.51
2022-07-26T02:14:10.001Z,62.65
2022-07-26T02:15:15.396Z,62.72
2022-07-26T02:16:16.980Z,62.67
2022-07-26T02:17:18.720Z,62.75
2022-07-26T02:18:20.319Z,62.80
2022-07-26T02:19:21.960Z,62.82
2022-07-26T02:20:23.561Z,62.76
2022-07-26T02:21:25.130Z,62.50
2022-07-26T02:22:26.980Z,62.36
2022-07-26T02:23:28.938Z,62.76
2022-07-26T02:24:30.730Z,62.40
2022-07-26T02:25:32.682Z,62.38
2022-07-26T02:26:34.337Z,62.54
2022-07-26T02:27:35.949Z,62.49
2022-07-26T02:28:37.557Z,62.62
2022-07-26T02:29:39.220Z,62.49
2022-07-26T02:30:41.101Z,62.67
2022-07-26T02:31:42.886Z,62.44
2022-07-26T02:32:50.550Z,62.42
2022-07-26T02:33:52.111Z,62.50
2022-07-26T02:34:53.709Z,62.80
2022-07-26T02:35:55.585Z,62.84
2022-07-26T02:36:57.242Z,63.28
2022-07-26T02:38:06.629Z,64.34
2022-07-26T02:39:08.222Z,64.65
2022-07-26T02:40:13.240Z,64.76
2022-07-26T02:41:18.785Z,65.63
2022-07-26T02:42:20.433Z,66.86
2022-07-26T02:43:22.186Z,67.58
2022-07-26T02:44:25.155Z,68.24
2022-07-26T02:45:27.444Z,68.43
2022-07-26T02:46:29.217Z,68.81
2022-07-26T02:47:32.977Z,68.77
2022-07-26T02:48:34.609Z,68.93
2022-07-26T02:49:36.496Z,68.25
2022-07-26T02:50:38.175Z,68.33
2022-07-26T02:51:39.803Z,68.08
2022-07-26T02:52:41.360Z,68.05
2022-07-26T02:53:42.988Z,67.75
2022-07-26T02:54:44.609Z,67.75
2022-07-26T02:55:46.223Z,67.55
2022-07-26T02:56:47.787Z,67.24
2022-07-26T02:57:50.083Z,66.84
2022-07-26T02:58:51.702Z,67.10
2022-07-26T02:59:53.351Z,66.48
2022-07-26T03:00:55.218Z,66.89
2022-07-26T03:01:56.939Z,66.54
2022-07-26T03:02:58.996Z,67.01
2022-07-26T03:04:01.195Z,67.00
2022-07-26T03:05:04.029Z,66.45
2022-07-26T03:06:05.757Z,66.35
2022-07-26T03:07:07.321Z,66.20
2022-07-26T03:08:08.921Z,65.81
2022-07-26T03:09:10.658Z,65.56
2022-07-26T03:10:12.589Z,65.19
2022-07-26T03:11:14.581Z,65.61
2022-07-26T03:12:16.207Z,65.41
2022-07-26T03:13:17.966Z,65.27
2022-07-26T03:14:19.542Z,65.10
2022-07-26T03:15:21.269Z,65.26
2022-07-26T03:16:27.351Z,65.43
2022-07-26T03:17:30.921Z,65.65
2022-07-26T03:18:33.946Z,65.39
2022-07-26T03:19:35.572Z,65.64
2022-07-26T03:20:37.203Z,65.42
2022-07-26T03:21:38.904Z,65.24
2022-07-26T03:22:40.590Z,65.16
2022-07-26T03:23:42.267Z,64.95
2022-07-26T03:24:43.868Z,64.58
2022-07-26T03:25:45.478Z,64.51
2022-07-26T03:26:47.094Z,64.55
2022-07-26T03:27:48.749Z,64.62
2022-07-26T03:28:50.387Z,64.51
2022-07-26T03:29:51.991Z,64.80
2022-07-26T03:30:53.715Z,65.58
2022-07-26T03:31:55.533Z,66.17
2022-07-26T03:32:57.140Z,66.56
2022-07-26T03:34:03.929Z,67.17
2022-07-26T03:35:07.040Z,67.96
2022-07-26T03:36:11.448Z,68.54
2022-07-26T03:37:13.381Z,69.21
2022-07-26T03:38:15.065Z,69.43
2022-07-26T03:39:16.681Z,69.00
2022-07-26T03:40:33.521Z,69.31
2022-07-26T03:41:35.102Z,69.34
2022-07-26T03:42:36.920Z,68.56
2022-07-26T03:43:38.529Z,68.76
2022-07-26T03:44:40.139Z,68.58
2022-07-26T03:45:42.605Z,68.40
2022-07-26T03:46:44.245Z,68.17
2022-07-26T03:47:46.460Z,68.08
2022-07-26T03:48:48.152Z,67.83
2022-07-26T03:49:49.771Z,67.58
2022-07-26T03:50:51.341Z,68.48
2022-07-26T03:51:53.179Z,68.13
2022-07-26T03:52:54.874Z,68.53
2022-07-26T03:53:56.457Z,69.18
2022-07-26T03:54:58.698Z,69.89
2022-07-26T03:56:19.568Z,69.65
2022-07-26T03:57:21.152Z,70.18
2022-07-26T03:58:22.899Z,70.71
2022-07-26T03:59:25.585Z,71.14
2022-07-26T04:00:27.466Z,70.48
2022-07-26T04:01:29.809Z,71.07
2022-07-26T04:02:31.497Z,71.05
2022-07-26T04:03:33.089Z,71.95
2022-07-26T04:04:35.049Z,72.16
2022-07-26T04:05:36.985Z,72.36
2022-07-26T04:06:39.739Z,72.93
2022-07-26T04:07:52.509Z,72.87
2022-07-26T04:08:55.545Z,72.58
2022-07-26T04:09:57.135Z,72.56
2022-07-26T04:10:59.298Z,72.63
2022-07-26T04:12:00.904Z,72.75
2022-07-26T04:13:02.555Z,73.25
2022-07-26T04:14:04.720Z,72.74
2022-07-26T04:15:07.322Z,72.21
2022-07-26T04:16:08.949Z,72.05
2022-07-26T04:17:10.665Z,72.02
2022-07-26T04:18:14.303Z,72.05
2022-07-26T04:19:16.094Z,71.83
2022-07-26T04:20:18.127Z,71.15
2022-07-26T04:21:20.275Z,70.66
2022-07-26T04:22:21.884Z,70.12
2022-07-26T04:23:23.582Z,69.68
2022-07-26T04:24:25.664Z,68.97
2022-07-26T04:25:27.384Z,68.35
2022-07-26T04:26:42.253Z,67.53
2022-07-26T04:27:43.882Z,67.12
2022-07-26T04:28:45.460Z,66.47
2022-07-26T04:29:47.077Z,65.94
2022-07-26T04:30:48.779Z,65.13
2022-07-26T04:31:50.423Z,64.11
2022-07-26T04:32:52.224Z,63.79
2022-07-26T04:33:53.871Z,63.51
2022-07-26T04:34:56.351Z,63.06
2022-07-26T04:35:57.967Z,62.33
2022-07-26T04:36:59.581Z,61.86
2022-07-26T04:38:02.605Z,61.40
2022-07-26T04:39:04.232Z,61.01
2022-07-26T04:40:06.668Z,60.97
2022-07-26T04:41:11.160Z,60.22
2022-07-26T04:42:13.099Z,59.89
2022-07-26T04:43:19.211Z,59.49
2022-07-26T04:44:20.914Z,59.44
2022-07-26T04:45:22.536Z,59.56
2022-07-26T04:46:25.347Z,58.88
2022-07-26T04:47:30.494Z,57.97
2022-07-26T04:48:32.242Z,57.69
2022-07-26T04:49:34.031Z,57.58
2022-07-26T04:50:35.732Z,57.50
2022-07-26T04:51:37.988Z,56.25
2022-07-26T04:52:40.102Z,56.44
2022-07-26T04:53:41.722Z,56.93
2022-07-26T04:54:43.896Z,55.92
2022-07-26T04:55:45.617Z,55.83
2022-07-26T04:56:47.585Z,56.53
2022-07-26T04:57:50.212Z,56.96
2022-07-26T04:58:51.798Z,56.64
2022-07-26T05:00:09.934Z,56.36
2022-07-26T05:01:15.183Z,55.63
2022-07-26T05:02:18.396Z,55.95
2022-07-26T05:03:22.090Z,55.18
2022-07-26T05:04:23.734Z,55.20
2022-07-26T05:05:26.928Z,55.46
2022-07-26T05:06:28.592Z,54.91
2022-07-26T05:07:46.361Z,54.95
2022-07-26T05:08:47.981Z,54.38
2022-07-26T05:09:49.664Z,53.42
2022-07-26T05:10:55.446Z,53.72
2022-07-26T05:11:57.788Z,53.79
2022-07-26T05:12:59.721Z,53.99
2022-07-26T05:14:01.344Z,53.42
2022-07-26T05:15:04.374Z,54.43
2022-07-26T05:16:11.698Z,55.10
2022-07-26T05:17:14.004Z,55.68
2022-07-26T05:18:19.541Z,55.25
2022-07-26T05:19:24.959Z,54.22
2022-07-26T05:20:26.647Z,54.22
2022-07-26T05:21:28.281Z,53.52
2022-07-26T05:22:29.959Z,53.14
2022-07-26T05:23:31.552Z,53.38
2022-07-26T05:24:33.145Z,52.92
2022-07-26T05:25:34.962Z,52.95
2022-07-26T05:26:36.829Z,52.26
2022-07-26T05:27:40.671Z,52.40
2022-07-26T05:28:42.498Z,52.22
2022-07-26T05:29:44.280Z,51.83
2022-07-26T05:30:47.082Z,51.67
2022-07-26T05:31:48.745Z,50.52
2022-07-26T05:32:50.518Z,50.49
2022-07-26T05:33:52.163Z,50.01
2022-07-26T05:34:53.784Z,49.77
2022-07-26T05:35:55.356Z,49.76
2022-07-26T05:36:57.267Z,49.48
2022-07-26T05:37:58.986Z,49.08
2022-07-26T05:39:00.639Z,48.54
2022-07-26T05:40:04.399Z,48.76
2022-07-26T05:41:06.864Z,48.39
2022-07-26T05:42:08.700Z,47.77
2022-07-26T05:43:10.266Z,47.50
2022-07-26T05:44:11.963Z,47.35
2022-07-26T05:45:13.706Z,46.71
2022-07-26T05:46:18.365Z,46.33
2022-07-26T05:47:19.961Z,46.68
2022-07-26T05:48:21.554Z,46.72
2022-07-26T05:49:23.168Z,46.44
2022-07-26T05:50:24.882Z,46.49
2022-07-26T05:51:26.463Z,46.63
2022-07-26T05:52:28.211Z,46.30
2022-07-26T05:53:30.013Z,46.46
2022-07-26T05:54:31.580Z,46.23
2022-07-26T05:55:33.175Z,45.92
2022-07-26T05:56:34.785Z,45.86
2022-07-26T05:57:36.356Z,45.09
2022-07-26T05:58:37.988Z,46.32
2022-07-26T05:59:39.584Z,47.28
2022-07-26T06:00:48.250Z,46.66
2022-07-26T06:01:50.698Z,46.48
2022-07-26T06:02:52.514Z,46.58
2022-07-26T06:03:54.207Z,46.59
2022-07-26T06:04:55.928Z,46.01
2022-07-26T06:05:58.684Z,45.50
2022-07-26T06:07:00.258Z,45.55
2022-07-26T06:08:01.867Z,45.76
2022-07-26T06:09:04.173Z,44.65
2022-07-26T06:10:06.377Z,45.25
2022-07-26T06:11:08.256Z,44.99
2022-07-26T06:12:10.087Z,44.41
2022-07-26T06:13:11.882Z,44.21
2022-07-26T06:14:14.016Z,43.74
2022-07-26T06:15:16.145Z,44.17
2022-07-26T06:16:17.961Z,43.02
2022-07-26T06:17:19.761Z,43.85
2022-07-26T06:18:21.617Z,43.39
2022-07-26T06:19:23.508Z,43.23
2022-07-26T06:20:25.091Z,42.95
2022-07-26T06:21:26.784Z,42.79
2022-07-26T06:22:28.375Z,43.58
2022-07-26T06:23:33.636Z,43.76
2022-07-26T06:24:36.750Z,43.82
2022-07-26T06:25:39.004Z,43.24
2022-07-26T06:26:40.970Z,43.81
2022-07-26T06:27:42.692Z,43.74
2022-07-26T06:28:44.604Z,42.37
2022-07-26T06:29:48.626Z,41.63
2022-07-26T06:30:50.398Z,42.25
2022-07-26T06:31:52.406Z,42.52
2022-07-26T06:32:54.041Z,42.45
2022-07-26T06:33:55.771Z,42.22
2022-07-26T06:34:57.437Z,41.19
2022-07-26T06:35:59.162Z,41.47
2022-07-26T06:37:00.761Z,41.65
2022-07-26T06:38:03.119Z,40.78
2022-07-26T06:39:04.732Z,40.58
2022-07-26T06:40:08.087Z,40.18
2022-07-26T06:41:09.704Z,40.50
2022-07-26T06:42:11.737Z,40.59
2022-07-26T06:43:13.422Z,40.90
2022-07-26T06:44:15.236Z,41.13
2022-07-26T06:45:16.847Z,41.68
2022-07-26T06:46:19.497Z,42.69
2022-07-26T06:47:21.325Z,42.71
2022-07-26T06:48:22.971Z,42.63
2022-07-26T06:49:25.132Z,42.90
2022-07-26T06:50:27.035Z,42.76
2022-07-26T06:51:29.148Z,41.92
2022-07-26T06:52:32.798Z,41.31
2022-07-26T06:53:34.747Z,40.47
2022-07-26T06:54:36.365Z,40.12
2022-07-26T06:55:37.954Z,40.20
2022-07-26T06:56:39.934Z,39.75
2022-07-26T06:57:44.990Z,40.77
2022-07-26T06:58:51.939Z,40.70
2022-07-26T06:59:53.843Z,41.11
2022-07-26T07:00:55.638Z,40.59
2022-07-26T07:02:00.204Z,39.73
2022-07-26T07:03:02.155Z,39.51
2022-07-26T07:04:03.820Z,40.35
2022-07-26T07:05:06.139Z,40.25
2022-07-26T07:06:08.065Z,40.71
2022-07-26T07:07:09.758Z,40.75
2022-07-26T07:08:14.589Z,40.56
2022-07-26T07:09:16.664Z,39.79
2022-07-26T07:10:19.274Z,39.33
2022-07-26T07:11:25.571Z,39.15
2022-07-26T07:12:27.614Z,39.29
2022-07-26T07:13:29.188Z,39.38
2022-07-26T07:14:31.091Z,38.95
2022-07-26T07:15:33.002Z,38.82
2022-07-26T07:16:34.620Z,38.38
2022-07-26T07:17:36.419Z,38.08
2022-07-26T07:18:38.244Z,38.68
2022-07-26T07:19:39.943Z,38.96
2022-07-26T07:20:41.544Z,38.35
2022-07-26T07:21:43.236Z,38.75
2022-07-26T07:22:44.889Z,38.87
2022-07-26T07:23:46.543Z,38.92
2022-07-26T07:24:48.610Z,38.66
2022-07-26T07:25:50.663Z,38.72
2022-07-26T07:26:52.937Z,38.12
2022-07-26T07:27:54.521Z,37.79
2022-07-26T07:28:56.879Z,38.32
2022-07-26T07:29:58.450Z,38.54
2022-07-26T07:31:00.195Z,38.26
2022-07-26T07:32:03.619Z,38.09
2022-07-26T07:33:05.414Z,38.12
2022-07-26T07:34:08.087Z,37.62
2022-07-26T07:35:12.977Z,38.05
2022-07-26T07:36:14.828Z,38.56
2022-07-26T07:37:17.897Z,38.99
2022-07-26T07:38:22.400Z,38.48
2022-07-26T07:39:27.222Z,38.16
2022-07-26T07:40:36.752Z,38.25
2022-07-26T07:41:39.235Z,38.36
2022-07-26T07:42:40.845Z,38.66
2022-07-26T07:43:42.430Z,38.31
2022-07-26T07:44:44.046Z,37.50
2022-07-26T07:45:48.391Z,37.13
2022-07-26T07:46:50.632Z,36.53
2022-07-26T07:47:52.224Z,36.89
2022-07-26T07:48:54.075Z,37.08
2022-07-26T07:49:55.726Z,36.85
2022-07-26T07:50:57.302Z,36.33
2022-07-26T07:51:58.931Z,35.93
2022-07-26T07:53:02.173Z,35.97
2022-07-26T07:54:05.898Z,36.18
2022-07-26T07:55:40.986Z,36.55
2022-07-26T07:56:30.295Z,37.53
2022-07-26T07:57:31.935Z,37.65
2022-07-26T07:58:33.766Z,38.08
2022-07-26T07:59:37.098Z,38.36
2022-07-26T08:00:41.444Z,38.25
2022-07-26T08:01:43.160Z,39.31
2022-07-26T08:02:47.179Z,38.73
2022-07-26T08:03:50.422Z,38.39
2022-07-26T08:04:54.136Z,38.47
2022-07-26T08:05:55.743Z,38.26
2022-07-26T08:06:57.777Z,38.42
2022-07-26T08:07:59.631Z,37.52
2022-07-26T08:09:01.341Z,37.45
2022-07-26T08:10:06.125Z,37.88
2022-07-26T08:11:08.059Z,38.04
2022-07-26T08:12:11.151Z,38.34
2022-07-26T08:13:13.438Z,38.54
2022-07-26T08:14:15.069Z,38.12
2022-07-26T08:15:16.650Z,38.30
2022-07-26T08:16:21.155Z,37.33
2022-07-26T08:17:22.821Z,36.69
2022-07-26T08:18:27.201Z,36.95
2022-07-26T08:19:42.011Z,37.23
2022-07-26T08:20:44.476Z,36.92
2022-07-26T08:21:46.899Z,36.99
2022-07-26T08:22:48.630Z,37.84
2022-07-26T08:25:09.747Z,37.97
2022-07-26T08:26:11.502Z,37.60
2022-07-26T08:27:14.596Z,37.26
2022-07-26T08:28:37.484Z,37.46
2022-07-26T08:29:38.341Z,37.50
2022-07-26T08:30:40.044Z,37.05
2022-07-26T08:31:41.712Z,37.03
2022-07-26T08:32:43.416Z,36.89
2022-07-26T08:33:46.544Z,36.94
2022-07-26T08:34:48.558Z,36.66
2022-07-26T08:35:50.295Z,36.64
2022-07-26T08:37:15.377Z,36.95
2022-07-26T08:38:13.515Z,37.59
2022-07-26T08:39:16.168Z,37.35
2022-07-26T08:40:18.026Z,37.74
2022-07-26T08:41:19.813Z,37.40
2022-07-26T08:42:23.150Z,37.36
2022-07-26T08:43:25.166Z,37.24
2022-07-26T08:44:26.855Z,37.75
2022-07-26T08:45:31.157Z,36.89
2022-07-26T08:46:36.595Z,36.44
2022-07-26T08:48:00.834Z,36.52
2022-07-26T08:49:02.368Z,36.05
2022-07-26T08:50:04.244Z,35.88
2022-07-26T08:51:11.132Z,35.20
2022-07-26T08:52:14.541Z,35.43
2022-07-26T08:53:16.863Z,35.09
2022-07-26T08:54:18.500Z,35.81
2022-07-26T08:55:21.015Z,34.81
2022-07-26T08:56:22.652Z,35.48
2022-07-26T08:57:24.263Z,34.49
2022-07-26T08:58:25.968Z,34.69
2022-07-26T08:59:27.719Z,35.05
2022-07-26T09:00:31.237Z,34.84
2022-07-26T09:01:33.128Z,34.62
2022-07-26T09:02:41.754Z,35.44
2022-07-26T09:03:45.170Z,34.87
2022-07-26T09:04:47.388Z,35.08
2022-07-26T09:05:49.067Z,34.91
2022-07-26T09:06:59.835Z,35.89
2022-07-26T09:08:22.300Z,35.57
2022-07-26T09:09:23.993Z,35.41
2022-07-26T09:10:26.750Z,35.37
2022-07-26T09:11:30.025Z,35.22
2022-07-26T09:12:33.107Z,35.28
2022-07-26T09:13:52.615Z,34.57
2022-07-26T09:14:54.880Z,34.14
2022-07-26T09:16:12.422Z,33.15
2022-07-26T09:17:16.826Z,32.77
2022-07-26T09:18:29.393Z,33.43
2022-07-26T09:19:31.030Z,32.40
2022-07-26T09:20:33.300Z,32.10
2022-07-26T09:21:36.554Z,31.27
2022-07-26T09:22:55.268Z,31.79
2022-07-26T09:23:58.538Z,31.22
2022-07-26T09:25:00.356Z,31.31
2022-07-26T09:26:05.069Z,29.60
2022-07-26T09:27:10.192Z,29.48
2022-07-26T09:28:44.964Z,29.43
2022-07-26T09:30:04.341Z,28.68
2022-07-26T09:31:06.507Z,29.09
2022-07-26T09:32:18.461Z,30.68
2022-07-26T09:33:20.191Z,31.21
2022-07-26T09:34:25.746Z,31.59
2022-07-26T09:35:50.348Z,31.39
2022-07-26T09:36:54.684Z,30.37
2022-07-26T09:37:56.758Z,30.14
2022-07-26T09:39:01.621Z,29.62
2022-07-26T09:40:06.947Z,29.22
2022-07-26T09:41:19.427Z,29.17
2022-07-26T09:42:30.047Z,29.42
2022-07-26T09:43:37.623Z,29.91
2022-07-26T09:44:48.052Z,30.27
2022-07-26T09:46:03.125Z,29.78
2022-07-26T09:47:05.100Z,29.58
2022-07-26T09:48:11.495Z,29.44
2022-07-26T09:49:18.266Z,30.00
2022-07-26T09:50:25.627Z,29.99
2022-07-26T09:51:41.506Z,29.70
2022-07-26T09:52:59.397Z,28.78
2022-07-26T09:54:01.046Z,28.33
2022-07-26T09:55:06.296Z,28.33
2022-07-26T09:56:08.646Z,28.20
2022-07-26T09:57:10.915Z,28.41
2022-07-26T09:58:14.699Z,28.08
2022-07-26T09:59:18.589Z,28.35
2022-07-26T10:00:20.194Z,28.11
2022-07-26T10:01:21.801Z,28.06
2022-07-26T10:02:23.954Z,28.69
2022-07-26T10:03:25.673Z,28.67
2022-07-26T10:04:27.636Z,28.24
2022-07-26T10:05:29.548Z,27.95
2022-07-26T10:06:32.445Z,28.76
2022-07-26T10:07:34.531Z,28.77
2022-07-26T10:08:36.753Z,29.20
2022-07-26T10:09:54.674Z,28.93
2022-07-26T10:11:04.325Z,29.05
2022-07-26T10:12:08.964Z,29.45
2022-07-26T10:13:11.159Z,29.61
2022-07-26T10:14:40.707Z,29.50
2022-07-26T10:15:47.659Z,29.94
2022-07-26T10:16:49.886Z,29.59
2022-07-26T10:17:51.566Z,29.90
2022-07-26T10:18:57.843Z,29.61
2022-07-26T10:20:10.640Z,30.07
2022-07-26T10:21:32.431Z,28.95
2022-07-26T10:22:45.824Z,29.61
2022-07-26T10:23:58.438Z,29.31
2022-07-26T10:25:18.290Z,29.43
2022-07-26T10:26:43.138Z,29.76
2022-07-26T10:27:48.780Z,29.93
2022-07-26T10:28:50.711Z,29.51
2022-07-26T10:30:18.301Z,29.38
2022-07-26T10:31:29.954Z,29.11
2022-07-26T10:32:34.359Z,29.53
2022-07-26T10:33:44.656Z,29.34
2022-07-26T10:34:46.566Z,29.55
2022-07-26T10:35:48.193Z,29.02
2022-07-26T10:36:58.747Z,28.63
2022-07-26T10:38:06.296Z,28.46
2022-07-26T10:39:12.166Z,29.47
2022-07-26T10:40:21.128Z,29.13
2022-07-26T10:41:35.644Z,28.51
2022-07-26T10:42:44.854Z,28.16
2022-07-26T10:44:16.465Z,28.60
2022-07-26T10:45:22.896Z,28.03
2022-07-26T10:46:28.001Z,28.51
2022-07-26T10:47:34.865Z,27.89
2022-07-26T10:49:06.648Z,27.39
2022-07-26T10:50:08.504Z,27.52
2022-07-26T10:51:26.932Z,27.88
2022-07-26T10:52:30.359Z,27.72
2022-07-26T10:53:32.888Z,27.66
2022-07-26T10:54:55.873Z,28.20
2022-07-26T10:55:58.427Z,27.80
2022-07-26T10:57:00.042Z,28.30
2022-07-26T10:58:01.648Z,27.99
2022-07-26T10:59:05.285Z,27.44
2022-07-26T11:00:11.371Z,27.86
2022-07-26T11:01:13.122Z,27.33
2022-07-26T11:02:19.150Z,27.61
2022-07-26T11:03:21.150Z,27.91
2022-07-26T11:04:23.650Z,27.97
2022-07-26T11:05:31.067Z,27.62
2022-07-26T11:06:32.992Z,28.04
2022-07-26T11:07:57.950Z,27.84
2022-07-26T11:09:10.078Z,27.74
2022-07-26T11:10:11.658Z,28.00
2022-07-26T11:11:14.342Z,27.86
2022-07-26T11:12:19.296Z,27.85
2022-07-26T11:13:25.967Z,27.68
2022-07-26T11:14:27.620Z,27.40
2022-07-26T11:15:29.492Z,27.62
2022-07-26T11:16:37.631Z,27.92
2022-07-26T11:17:39.182Z,27.20
2022-07-26T11:18:40.800Z,27.82
2022-07-26T11:19:42.425Z,27.55
2022-07-26T11:20:46.513Z,28.03
2022-07-26T11:21:59.788Z,28.58
2022-07-26T11:23:01.531Z,28.33
2022-07-26T11:24:04.029Z,28.50
2022-07-26T11:25:06.078Z,28.85
2022-07-26T11:26:18.947Z,28.49
2022-07-26T11:27:20.660Z,28.33
2022-07-26T11:28:22.291Z,29.26
2022-07-26T11:29:40.189Z,28.60
2022-07-26T11:31:00.078Z,28.79
2022-07-26T11:32:14.515Z,29.49
2022-07-26T11:33:18.557Z,28.91
2022-07-26T11:34:25.618Z,29.23
2022-07-26T11:35:30.057Z,28.88
2022-07-26T11:36:33.050Z,28.93
2022-07-26T11:37:34.742Z,28.88
2022-07-26T11:38:52.666Z,29.12
2022-07-26T11:39:54.444Z,29.18
2022-07-26T11:40:56.271Z,29.03
2022-07-26T11:42:04.336Z,28.67
2022-07-26T11:43:06.086Z,28.53
2022-07-26T11:44:23.717Z,28.45
2022-07-26T11:45:25.309Z,28.37
2022-07-26T11:46:38.903Z,28.61
2022-07-26T11:47:40.652Z,28.57
2022-07-26T11:48:47.186Z,27.88
2022-07-26T11:50:00.094Z,28.24
2022-07-26T11:51:14.207Z,29.02
2022-07-26T11:52:25.683Z,29.30
2022-07-26T11:53:27.644Z,28.48
2022-07-26T11:54:43.362Z,28.81
2022-07-26T11:55:47.526Z,28.90
2022-07-26T11:56:54.945Z,29.22
2022-07-26T11:57:57.154Z,28.95
2022-07-26T11:58:59.034Z,28.58
2022-07-26T12:00:01.439Z,29.14
2022-07-26T12:01:03.433Z,28.91
2022-07-26T12:02:09.028Z,29.26
2022-07-26T12:03:10.695Z,28.32
2022-07-26T12:04:24.254Z,28.61
2022-07-26T12:05:26.077Z,28.76
2022-07-26T12:06:28.992Z,29.27
2022-07-26T12:07:31.334Z,28.78
2022-07-26T12:08:48.693Z,29.17
2022-07-26T12:09:53.547Z,29.19
2022-07-26T12:10:55.197Z,29.03
2022-07-26T12:11:57.153Z,28.50
2022-07-26T12:13:12.874Z,28.31
2022-07-26T12:14:31.689Z,28.39
2022-07-26T12:15:44.784Z,28.27
2022-07-26T12:16:47.783Z,28.46
2022-07-26T12:18:00.063Z,28.61
2022-07-26T12:19:02.114Z,28.52
2022-07-26T12:20:15.036Z,28.46
2022-07-26T12:21:19.104Z,28.51
2022-07-26T12:22:22.576Z,28.22
2022-07-26T12:23:24.248Z,28.69
2022-07-26T12:24:46.338Z,28.20
2022-07-26T12:25:49.361Z,28.71
2022-07-26T12:27:05.122Z,28.33
2022-07-26T12:28:07.699Z,27.99
2022-07-26T12:29:24.526Z,28.37
2022-07-26T12:30:30.346Z,28.27
2022-07-26T12:31:34.118Z,28.34
2022-07-26T12:32:37.897Z,28.37
2022-07-26T12:33:49.490Z,28.70
2022-07-26T12:35:21.521Z,28.69
2022-07-26T12:36:27.529Z,27.75
2022-07-26T12:37:39.982Z,27.90
2022-07-26T12:38:44.133Z,28.06
2022-07-26T12:40:06.006Z,27.89
2022-07-26T12:41:07.662Z,28.22
2022-07-26T12:42:42.653Z,28.44
2022-07-26T12:43:44.258Z,28.94
2022-07-26T12:44:51.786Z,28.42
2022-07-26T12:45:53.918Z,28.75
2022-07-26T12:46:55.512Z,28.59
2022-07-26T12:47:58.493Z,28.52
2022-07-26T12:49:00.849Z,28.01
2022-07-26T12:50:04.287Z,28.14
2022-07-26T12:51:06.248Z,27.44
2022-07-26T12:52:07.847Z,28.02
2022-07-26T12:53:09.536Z,27.77
2022-07-26T12:54:14.850Z,28.06
2022-07-26T12:55:21.526Z,28.15
2022-07-26T12:56:23.119Z,28.19
2022-07-26T12:57:24.738Z,27.95
2022-07-26T12:58:26.347Z,28.19
2022-07-26T12:59:27.980Z,28.47
2022-07-26T13:00:30.289Z,28.29
2022-07-26T13:01:32.840Z,28.45
2022-07-26T13:02:34.506Z,28.40
2022-07-26T13:03:36.094Z,28.07
2022-07-26T13:04:38.136Z,27.79
2022-07-26T13:05:39.772Z,29.16
2022-07-26T13:06:41.337Z,30.22
2022-07-26T13:07:43.002Z,30.65
2022-07-26T13:08:44.649Z,30.43
2022-07-26T13:09:47.178Z,29.78
2022-07-26T13:10:48.761Z,30.04
2022-07-26T13:11:50.569Z,29.69
2022-07-26T13:12:52.146Z,29.43
2022-07-26T13:13:53.768Z,29.49
2022-07-26T13:14:55.359Z,29.19
2022-07-26T13:15:57.084Z,29.51
2022-07-26T13:16:58.720Z,29.28
2022-07-26T13:18:00.379Z,29.00
2022-07-26T13:19:02.113Z,29.17
2022-07-26T13:20:04.623Z,29.51
2022-07-26T13:21:06.777Z,29.87
2022-07-26T13:22:09.119Z,29.82
2022-07-26T13:23:12.772Z,29.53
2022-07-26T13:24:16.044Z,30.33
2022-07-26T13:25:18.360Z,30.33
2022-07-26T13:26:21.065Z,30.80
2022-07-26T13:27:23.941Z,29.94
2022-07-26T13:28:25.542Z,30.25
2022-07-26T13:29:27.689Z,30.49
2022-07-26T13:30:29.453Z,30.38
2022-07-26T13:31:32.657Z,30.65
2022-07-26T13:32:34.376Z,30.37
2022-07-26T13:33:38.060Z,30.28
2022-07-26T13:34:39.766Z,30.14
2022-07-26T13:35:43.994Z,29.88
2022-07-26T13:36:46.447Z,30.51
2022-07-26T13:37:48.126Z,30.15
2022-07-26T13:38:49.702Z,29.58
2022-07-26T13:39:51.294Z,30.47
2022-07-26T13:40:53.090Z,30.35
2022-07-26T13:41:55.569Z,29.70
2022-07-26T13:42:57.172Z,29.54
2022-07-26T13:43:59.502Z,30.37
2022-07-26T13:45:01.080Z,30.83
2022-07-26T13:46:03.173Z,30.61